sensor_id;sensor_type;location;lat;lon;timestamp;pressure;altitude;pressure_sealevel;temperature;humidity
36392;BME280;22639;42.690;23.356;2022-09-19T00:00:37;52988.91;;;-141.22;100.00
36392;BME280;22639;42.690;23.356;2022-09-19T00:03:03;52988.91;;;-141.22;100.00
36392;BME280;22639;42.690;23.356;2022-09-19T00:05:28;52988.91;;;-141.22;100.00
36392;BME280;22639;42.690;23.356;2022-09-19T00:07:54;52988.91;;;-141.22;100.00
36392;BME280;22639;42.690;23.356;2022-09-19T00:10:19;52988.91;;;-141.22;100.00
36392;BME280;22639;42.690;23.356;2022-09-19T00:12:45;52988.91;;;-141.22;100.00
36392;BME280;22639;42.690;23.356;2022-09-19T00:15:10;52988.91;;;-141.22;100.00
36392;BME280;22639;42.690;23.356;2022-09-19T00:17:36;52988.91;;;-141.22;100.00
36392;BME280;22639;42.690;23.356;2022-09-19T00:20:01;52988.91;;;-141.22;100.00
36392;BME280;22639;42.690;23.356;2022-09-19T00:22:26;52988.91;;;-141.22;100.00
36392;BME280;22639;42.690;23.356;2022-09-19T00:24:52;52988.91;;;-141.22;100.00
36392;BME280;22639;42.690;23.356;2022-09-19T00:27:23;52988.91;;;-141.22;100.00
36392;BME280;22639;42.690;23.356;2022-09-19T00:29:51;52988.91;;;-141.22;100.00
36392;BME280;22639;42.690;23.356;2022-09-19T00:32:18;52988.91;;;-141.22;100.00
36392;BME280;22639;42.690;23.356;2022-09-19T00:34:48;52988.91;;;-141.22;100.00
36392;BME280;22639;42.690;23.356;2022-09-19T00:37:16;52988.91;;;-141.22;100.00
36392;BME280;22639;42.690;23.356;2022-09-19T00:39:41;52988.91;;;-141.22;100.00
36392;BME280;22639;42.690;23.356;2022-09-19T00:42:16;52988.91;;;-141.22;100.00
36392;BME280;22639;42.690;23.356;2022-09-19T00:47:11;52988.91;;;-141.22;100.00
36392;BME280;22639;42.690;23.356;2022-09-19T00:49:41;52988.91;;;-141.22;100.00
36392;BME280;22639;42.690;23.356;2022-09-19T00:52:18;52988.91;;;-141.22;100.00
36392;BME280;22639;42.690;23.356;2022-09-19T00:54:47;52988.91;;;-141.22;100.00
36392;BME280;22639;42.690;23.356;2022-09-19T00:57:15;52988.91;;;-141.22;100.00
36392;BME280;22639;42.690;23.356;2022-09-19T00:59:47;52988.91;;;-141.22;100.00
36392;BME280;22639;42.690;23.356;2022-09-19T01:02:15;52988.91;;;-141.22;100.00
36392;BME280;22639;42.690;23.356;2022-09-19T01:04:42;52988.91;;;-141.22;100.00
36392;BME280;22639;42.690;23.356;2022-09-19T01:07:42;52988.91;;;-141.22;100.00
36392;BME280;22639;42.690;23.356;2022-09-19T01:18:00;52988.91;;;-141.22;100.00
36392;BME280;22639;42.690;23.356;2022-09-19T01:30:03;52988.91;;;-141.22;100.00
36392;BME280;22639;42.690;23.356;2022-09-19T01:32:33;52988.91;;;-141.22;100.00
36392;BME280;22639;42.690;23.356;2022-09-19T01:35:04;52988.91;;;-141.22;100.00
36392;BME280;22639;42.690;23.356;2022-09-19T01:37:40;52988.91;;;-141.22;100.00
36392;BME280;22639;42.690;23.356;2022-09-19T01:40:08;52988.91;;;-141.22;100.00
36392;BME280;22639;42.690;23.356;2022-09-19T01:42:47;52988.91;;;-141.22;100.00
36392;BME280;22639;42.690;23.356;2022-09-19T01:45:14;52988.91;;;-141.22;100.00
36392;BME280;22639;42.690;23.356;2022-09-19T01:48:00;52988.91;;;-141.22;100.00
36392;BME280;22639;42.690;23.356;2022-09-19T01:51:13;52988.91;;;-141.22;100.00
36392;BME280;22639;42.690;23.356;2022-09-19T01:53:51;52988.91;;;-141.22;100.00
36392;BME280;22639;42.690;23.356;2022-09-19T01:56:45;52988.91;;;-141.22;100.00
36392;BME280;22639;42.690;23.356;2022-09-19T01:59:38;52988.91;;;-141.22;100.00
36392;BME280;22639;42.690;23.356;2022-09-19T02:02:21;52988.91;;;-141.22;100.00
36392;BME280;22639;42.690;23.356;2022-09-19T02:10:30;52988.91;;;-141.22;100.00
36392;BME280;22639;42.690;23.356;2022-09-19T02:12:59;52988.91;;;-141.22;100.00
36392;BME280;22639;42.690;23.356;2022-09-19T02:15:30;52988.91;;;-141.22;100.00
36392;BME280;22639;42.690;23.356;2022-09-19T02:18:13;52988.91;;;-141.22;100.00
36392;BME280;22639;42.690;23.356;2022-09-19T02:20:43;52988.91;;;-141.22;100.00
36392;BME280;22639;42.690;23.356;2022-09-19T02:23:13;52988.91;;;-141.22;100.00
36392;BME280;22639;42.690;23.356;2022-09-19T02:25:41;52988.91;;;-141.22;100.00
36392;BME280;22639;42.690;23.356;2022-09-19T02:28:11;52988.91;;;-141.22;100.00
36392;BME280;22639;42.690;23.356;2022-09-19T02:30:39;52988.91;;;-141.22;100.00
36392;BME280;22639;42.690;23.356;2022-09-19T02:33:07;52988.91;;;-141.22;100.00
36392;BME280;22639;42.690;23.356;2022-09-19T02:35:52;52988.91;;;-141.22;100.00
36392;BME280;22639;42.690;23.356;2022-09-19T02:38:26;52988.91;;;-141.22;100.00
36392;BME280;22639;42.690;23.356;2022-09-19T02:41:33;52988.91;;;-141.22;100.00
36392;BME280;22639;42.690;23.356;2022-09-19T02:44:13;52988.91;;;-141.22;100.00
36392;BME280;22639;42.690;23.356;2022-09-19T02:51:59;52988.91;;;-141.22;100.00
36392;BME280;22639;42.690;23.356;2022-09-19T02:54:34;52988.91;;;-141.22;100.00
36392;BME280;22639;42.690;23.356;2022-09-19T02:57:06;52988.91;;;-141.22;100.00
36392;BME280;22639;42.690;23.356;2022-09-19T02:59:36;52988.91;;;-141.22;100.00
36392;BME280;22639;42.690;23.356;2022-09-19T03:02:11;52988.91;;;-141.22;100.00
36392;BME280;22639;42.690;23.356;2022-09-19T03:04:44;52988.91;;;-141.22;100.00
36392;BME280;22639;42.690;23.356;2022-09-19T03:07:22;52988.91;;;-141.22;100.00
36392;BME280;22639;42.690;23.356;2022-09-19T03:10:00;52988.91;;;-141.22;100.00
36392;BME280;22639;42.690;23.356;2022-09-19T03:12:40;52988.91;;;-141.22;100.00
36392;BME280;22639;42.690;23.356;2022-09-19T03:15:14;52988.91;;;-141.22;100.00
36392;BME280;22639;42.690;23.356;2022-09-19T03:17:44;52988.91;;;-141.22;100.00
36392;BME280;22639;42.690;23.356;2022-09-19T03:20:15;52988.91;;;-141.22;100.00
36392;BME280;22639;42.690;23.356;2022-09-19T03:22:42;52988.91;;;-141.22;100.00
36392;BME280;22639;42.690;23.356;2022-09-19T03:25:10;52988.91;;;-141.22;100.00
36392;BME280;22639;42.690;23.356;2022-09-19T03:27:36;52988.91;;;-141.22;100.00
36392;BME280;22639;42.690;23.356;2022-09-19T03:30:07;52988.91;;;-141.22;100.00
36392;BME280;22639;42.690;23.356;2022-09-19T03:32:34;52988.91;;;-141.22;100.00
36392;BME280;22639;42.690;23.356;2022-09-19T03:35:00;52988.91;;;-141.22;100.00
36392;BME280;22639;42.690;23.356;2022-09-19T03:37:28;52988.91;;;-141.22;100.00
36392;BME280;22639;42.690;23.356;2022-09-19T03:39:53;52988.91;;;-141.22;100.00
36392;BME280;22639;42.690;23.356;2022-09-19T03:42:19;52988.91;;;-141.22;100.00
36392;BME280;22639;42.690;23.356;2022-09-19T03:44:45;52988.91;;;-141.22;100.00
36392;BME280;22639;42.690;23.356;2022-09-19T03:47:11;52988.91;;;-141.22;100.00
36392;BME280;22639;42.690;23.356;2022-09-19T03:49:36;52988.91;;;-141.22;100.00
36392;BME280;22639;42.690;23.356;2022-09-19T03:52:02;52988.91;;;-141.22;100.00
36392;BME280;22639;42.690;23.356;2022-09-19T03:54:27;52988.91;;;-141.22;100.00
36392;BME280;22639;42.690;23.356;2022-09-19T03:56:53;52988.91;;;-141.22;100.00
36392;BME280;22639;42.690;23.356;2022-09-19T03:59:19;52988.91;;;-141.22;100.00
36392;BME280;22639;42.690;23.356;2022-09-19T04:01:44;52988.91;;;-141.22;100.00
36392;BME280;22639;42.690;23.356;2022-09-19T04:04:10;52988.91;;;-141.22;100.00
36392;BME280;22639;42.690;23.356;2022-09-19T04:06:36;52988.91;;;-141.22;100.00
36392;BME280;22639;42.690;23.356;2022-09-19T04:09:02;52988.91;;;-141.22;100.00
36392;BME280;22639;42.690;23.356;2022-09-19T04:11:27;52988.91;;;-141.22;100.00
36392;BME280;22639;42.690;23.356;2022-09-19T04:13:53;52988.91;;;-141.22;100.00
36392;BME280;22639;42.690;23.356;2022-09-19T04:16:20;52988.91;;;-141.22;100.00
36392;BME280;22639;42.690;23.356;2022-09-19T04:18:46;52988.91;;;-141.22;100.00
36392;BME280;22639;42.690;23.356;2022-09-19T04:21:15;52988.91;;;-141.22;100.00
36392;BME280;22639;42.690;23.356;2022-09-19T04:23:43;52988.91;;;-141.22;100.00
36392;BME280;22639;42.690;23.356;2022-09-19T04:26:09;52988.91;;;-141.22;100.00
36392;BME280;22639;42.690;23.356;2022-09-19T04:28:37;52988.91;;;-141.22;100.00
36392;BME280;22639;42.690;23.356;2022-09-19T04:31:05;52988.91;;;-141.22;100.00
36392;BME280;22639;42.690;23.356;2022-09-19T04:33:33;52988.91;;;-141.22;100.00
36392;BME280;22639;42.690;23.356;2022-09-19T04:35:59;52988.91;;;-141.22;100.00
36392;BME280;22639;42.690;23.356;2022-09-19T04:38:26;52988.91;;;-141.22;100.00
36392;BME280;22639;42.690;23.356;2022-09-19T04:40:54;52988.91;;;-141.22;100.00
36392;BME280;22639;42.690;23.356;2022-09-19T04:43:23;52988.91;;;-141.22;100.00
36392;BME280;22639;42.690;23.356;2022-09-19T04:45:50;52988.91;;;-141.22;100.00
36392;BME280;22639;42.690;23.356;2022-09-19T04:48:17;52988.91;;;-141.22;100.00
36392;BME280;22639;42.690;23.356;2022-09-19T04:50:45;52988.91;;;-141.22;100.00
36392;BME280;22639;42.690;23.356;2022-09-19T04:53:12;52988.91;;;-141.22;100.00
36392;BME280;22639;42.690;23.356;2022-09-19T04:55:39;52988.91;;;-141.22;100.00
36392;BME280;22639;42.690;23.356;2022-09-19T04:58:05;52988.91;;;-141.22;100.00
36392;BME280;22639;42.690;23.356;2022-09-19T05:00:33;52988.91;;;-141.22;100.00
36392;BME280;22639;42.690;23.356;2022-09-19T05:03:09;52988.91;;;-141.22;100.00
36392;BME280;22639;42.690;23.356;2022-09-19T05:05:38;52988.91;;;-141.22;100.00
36392;BME280;22639;42.690;23.356;2022-09-19T05:08:12;52988.91;;;-141.22;100.00
36392;BME280;22639;42.690;23.356;2022-09-19T05:10:38;52988.91;;;-141.22;100.00
36392;BME280;22639;42.690;23.356;2022-09-19T05:13:04;52988.91;;;-141.22;100.00
36392;BME280;22639;42.690;23.356;2022-09-19T05:15:30;52988.91;;;-141.22;100.00
36392;BME280;22639;42.690;23.356;2022-09-19T05:17:55;52988.91;;;-141.22;100.00
36392;BME280;22639;42.690;23.356;2022-09-19T05:20:24;52988.91;;;-141.22;100.00
36392;BME280;22639;42.690;23.356;2022-09-19T05:22:56;52988.91;;;-141.22;100.00
36392;BME280;22639;42.690;23.356;2022-09-19T05:25:27;52988.91;;;-141.22;100.00
36392;BME280;22639;42.690;23.356;2022-09-19T05:27:55;52988.91;;;-141.22;100.00
36392;BME280;22639;42.690;23.356;2022-09-19T05:30:21;52988.91;;;-141.22;100.00
36392;BME280;22639;42.690;23.356;2022-09-19T05:32:52;52988.91;;;-141.22;100.00
36392;BME280;22639;42.690;23.356;2022-09-19T05:35:18;52988.91;;;-141.22;100.00
36392;BME280;22639;42.690;23.356;2022-09-19T05:37:45;52988.91;;;-141.22;100.00
36392;BME280;22639;42.690;23.356;2022-09-19T05:40:11;52988.91;;;-141.22;100.00
36392;BME280;22639;42.690;23.356;2022-09-19T05:42:41;52988.91;;;-141.22;100.00
36392;BME280;22639;42.690;23.356;2022-09-19T05:45:09;52988.91;;;-141.22;100.00
36392;BME280;22639;42.690;23.356;2022-09-19T05:47:36;52988.91;;;-141.22;100.00
36392;BME280;22639;42.690;23.356;2022-09-19T05:50:06;52988.91;;;-141.22;100.00
36392;BME280;22639;42.690;23.356;2022-09-19T05:52:34;52988.91;;;-141.22;100.00
36392;BME280;22639;42.690;23.356;2022-09-19T05:55:18;52988.91;;;-141.22;100.00
36392;BME280;22639;42.690;23.356;2022-09-19T05:57:49;52988.91;;;-141.22;100.00
36392;BME280;22639;42.690;23.356;2022-09-19T06:00:15;52988.91;;;-141.22;100.00
36392;BME280;22639;42.690;23.356;2022-09-19T06:02:41;52988.91;;;-141.22;100.00
36392;BME280;22639;42.690;23.356;2022-09-19T06:05:06;52988.91;;;-141.22;100.00
36392;BME280;22639;42.690;23.356;2022-09-19T06:07:33;52988.91;;;-141.22;100.00
36392;BME280;22639;42.690;23.356;2022-09-19T06:09:58;52988.91;;;-141.22;100.00
36392;BME280;22639;42.690;23.356;2022-09-19T06:12:26;52988.91;;;-141.22;100.00
36392;BME280;22639;42.690;23.356;2022-09-19T06:14:51;52988.91;;;-141.22;100.00
36392;BME280;22639;42.690;23.356;2022-09-19T06:17:17;52988.91;;;-141.22;100.00
36392;BME280;22639;42.690;23.356;2022-09-19T06:19:42;52988.91;;;-141.22;100.00
36392;BME280;22639;42.690;23.356;2022-09-19T06:22:07;52988.91;;;-141.22;100.00
36392;BME280;22639;42.690;23.356;2022-09-19T06:24:33;52988.91;;;-141.22;100.00
36392;BME280;22639;42.690;23.356;2022-09-19T06:26:58;52988.91;;;-141.22;100.00
36392;BME280;22639;42.690;23.356;2022-09-19T06:29:24;52988.91;;;-141.22;100.00
36392;BME280;22639;42.690;23.356;2022-09-19T06:31:50;52988.91;;;-141.22;100.00
36392;BME280;22639;42.690;23.356;2022-09-19T06:34:16;52988.91;;;-141.22;100.00
36392;BME280;22639;42.690;23.356;2022-09-19T06:36:41;52988.91;;;-141.22;100.00
36392;BME280;22639;42.690;23.356;2022-09-19T06:39:10;52988.91;;;-141.22;100.00
36392;BME280;22639;42.690;23.356;2022-09-19T06:41:35;52988.91;;;-141.22;100.00
36392;BME280;22639;42.690;23.356;2022-09-19T06:44:01;52988.91;;;-141.22;100.00
36392;BME280;22639;42.690;23.356;2022-09-19T06:46:27;52988.91;;;-141.22;100.00
36392;BME280;22639;42.690;23.356;2022-09-19T06:48:53;52988.91;;;-141.22;100.00
36392;BME280;22639;42.690;23.356;2022-09-19T06:51:19;52988.91;;;-141.22;100.00
36392;BME280;22639;42.690;23.356;2022-09-19T06:53:46;52988.91;;;-141.22;100.00
36392;BME280;22639;42.690;23.356;2022-09-19T06:56:13;52988.91;;;-141.22;100.00
36392;BME280;22639;42.690;23.356;2022-09-19T06:58:38;52988.91;;;-141.22;100.00
36392;BME280;22639;42.690;23.356;2022-09-19T07:01:04;52988.91;;;-141.22;100.00
36392;BME280;22639;42.690;23.356;2022-09-19T07:03:29;52988.91;;;-141.22;100.00
36392;BME280;22639;42.690;23.356;2022-09-19T07:05:56;52988.91;;;-141.22;100.00
36392;BME280;22639;42.690;23.356;2022-09-19T07:08:24;52988.91;;;-141.22;100.00
36392;BME280;22639;42.690;23.356;2022-09-19T07:10:50;52988.91;;;-141.22;100.00
36392;BME280;22639;42.690;23.356;2022-09-19T07:13:15;52988.91;;;-141.22;100.00
36392;BME280;22639;42.690;23.356;2022-09-19T07:15:42;52988.91;;;-141.22;100.00
36392;BME280;22639;42.690;23.356;2022-09-19T07:18:08;52988.91;;;-141.22;100.00
36392;BME280;22639;42.690;23.356;2022-09-19T07:20:36;52988.91;;;-141.22;100.00
36392;BME280;22639;42.690;23.356;2022-09-19T07:25:28;52988.91;;;-141.22;100.00
36392;BME280;22639;42.690;23.356;2022-09-19T07:27:59;52988.91;;;-141.22;100.00
36392;BME280;22639;42.690;23.356;2022-09-19T07:30:25;52988.91;;;-141.22;100.00
36392;BME280;22639;42.690;23.356;2022-09-19T07:32:55;52988.91;;;-141.22;100.00
36392;BME280;22639;42.690;23.356;2022-09-19T07:35:23;52988.91;;;-141.22;100.00
36392;BME280;22639;42.690;23.356;2022-09-19T07:37:49;52988.91;;;-141.22;100.00
36392;BME280;22639;42.690;23.356;2022-09-19T07:40:15;52988.91;;;-141.22;100.00
36392;BME280;22639;42.690;23.356;2022-09-19T07:42:41;52988.91;;;-141.22;100.00
36392;BME280;22639;42.690;23.356;2022-09-19T07:45:09;52988.91;;;-141.22;100.00
36392;BME280;22639;42.690;23.356;2022-09-19T07:47:34;52988.91;;;-141.22;100.00
36392;BME280;22639;42.690;23.356;2022-09-19T07:50:03;52988.91;;;-141.22;100.00
36392;BME280;22639;42.690;23.356;2022-09-19T07:52:28;52988.91;;;-141.22;100.00
36392;BME280;22639;42.690;23.356;2022-09-19T07:54:54;52988.91;;;-141.22;100.00
36392;BME280;22639;42.690;23.356;2022-09-19T07:57:19;52988.91;;;-141.22;100.00
36392;BME280;22639;42.690;23.356;2022-09-19T07:59:44;52988.91;;;-141.22;100.00
36392;BME280;22639;42.690;23.356;2022-09-19T08:02:12;52988.91;;;-141.22;100.00
36392;BME280;22639;42.690;23.356;2022-09-19T08:04:38;52988.91;;;-141.22;100.00
36392;BME280;22639;42.690;23.356;2022-09-19T08:07:05;52988.91;;;-141.22;100.00
36392;BME280;22639;42.690;23.356;2022-09-19T08:09:30;52988.91;;;-141.22;100.00
36392;BME280;22639;42.690;23.356;2022-09-19T08:11:56;52988.91;;;-141.22;100.00
36392;BME280;22639;42.690;23.356;2022-09-19T08:14:22;52988.91;;;-141.22;100.00
36392;BME280;22639;42.690;23.356;2022-09-19T08:16:50;52988.91;;;-141.22;100.00
36392;BME280;22639;42.690;23.356;2022-09-19T08:19:18;52988.91;;;-141.22;100.00
36392;BME280;22639;42.690;23.356;2022-09-19T08:21:43;52988.91;;;-141.22;100.00
36392;BME280;22639;42.690;23.356;2022-09-19T08:24:09;52988.91;;;-141.22;100.00
36392;BME280;22639;42.690;23.356;2022-09-19T08:26:34;52988.91;;;-141.22;100.00
36392;BME280;22639;42.690;23.356;2022-09-19T08:28:59;52988.91;;;-141.22;100.00
36392;BME280;22639;42.690;23.356;2022-09-19T08:31:25;52988.91;;;-141.22;100.00
36392;BME280;22639;42.690;23.356;2022-09-19T08:33:51;52988.91;;;-141.22;100.00
36392;BME280;22639;42.690;23.356;2022-09-19T08:36:16;52988.91;;;-141.22;100.00
36392;BME280;22639;42.690;23.356;2022-09-19T08:38:42;52988.91;;;-141.22;100.00
36392;BME280;22639;42.690;23.356;2022-09-19T08:44:21;52988.91;;;-141.22;100.00
36392;BME280;22639;42.690;23.356;2022-09-19T08:52:02;52988.91;;;-141.22;100.00
36392;BME280;22639;42.690;23.356;2022-09-19T08:56:59;52988.91;;;-141.22;100.00
36392;BME280;22639;42.690;23.356;2022-09-19T08:59:29;52988.91;;;-141.22;100.00
36392;BME280;22639;42.690;23.356;2022-09-19T09:02:43;52988.91;;;-141.22;100.00
36392;BME280;22639;42.690;23.356;2022-09-19T09:05:15;52988.91;;;-141.22;100.00
36392;BME280;22639;42.690;23.356;2022-09-19T09:07:56;52988.91;;;-141.22;100.00
36392;BME280;22639;42.690;23.356;2022-09-19T09:10:50;52988.91;;;-141.22;100.00
36392;BME280;22639;42.690;23.356;2022-09-19T09:24:38;52988.91;;;-141.22;100.00
36392;BME280;22639;42.690;23.356;2022-09-19T09:27:09;52988.91;;;-141.22;100.00
36392;BME280;22639;42.690;23.356;2022-09-19T09:29:48;52988.91;;;-141.22;100.00
36392;BME280;22639;42.690;23.356;2022-09-19T09:32:23;52988.91;;;-141.22;100.00
36392;BME280;22639;42.690;23.356;2022-09-19T09:35:00;52988.91;;;-141.22;100.00
36392;BME280;22639;42.690;23.356;2022-09-19T09:37:41;52988.91;;;-141.22;100.00
36392;BME280;22639;42.690;23.356;2022-09-19T09:40:11;52988.91;;;-141.22;100.00
36392;BME280;22639;42.690;23.356;2022-09-19T09:42:49;52988.91;;;-141.22;100.00
36392;BME280;22639;42.690;23.356;2022-09-19T09:45:24;52988.91;;;-141.22;100.00
36392;BME280;22639;42.690;23.356;2022-09-19T09:48:25;52988.91;;;-141.22;100.00
36392;BME280;22639;42.690;23.356;2022-09-19T09:53:46;52988.91;;;-141.22;100.00
36392;BME280;22639;42.690;23.356;2022-09-19T09:56:32;52988.91;;;-141.22;100.00
36392;BME280;22639;42.690;23.356;2022-09-19T10:02:44;52988.91;;;-141.22;100.00
36392;BME280;22639;42.690;23.356;2022-09-19T10:05:43;52988.91;;;-141.22;100.00
36392;BME280;22639;42.690;23.356;2022-09-19T10:08:28;52988.91;;;-141.22;100.00
36392;BME280;22639;42.690;23.356;2022-09-19T10:11:04;52988.91;;;-141.22;100.00
36392;BME280;22639;42.690;23.356;2022-09-19T10:13:37;52988.91;;;-141.22;100.00
36392;BME280;22639;42.690;23.356;2022-09-19T10:16:06;52988.91;;;-141.22;100.00
36392;BME280;22639;42.690;23.356;2022-09-19T10:18:45;52988.91;;;-141.22;100.00
36392;BME280;22639;42.690;23.356;2022-09-19T10:21:11;52988.91;;;-141.22;100.00
36392;BME280;22639;42.690;23.356;2022-09-19T10:23:40;52988.91;;;-141.22;100.00
36392;BME280;22639;42.690;23.356;2022-09-19T10:26:08;52988.91;;;-141.22;100.00
36392;BME280;22639;42.690;23.356;2022-09-19T10:28:52;52988.91;;;-141.22;100.00
36392;BME280;22639;42.690;23.356;2022-09-19T10:33:49;52988.91;;;-141.22;100.00
36392;BME280;22639;42.690;23.356;2022-09-19T10:36:22;52988.91;;;-141.22;100.00
36392;BME280;22639;42.690;23.356;2022-09-19T10:38:52;52988.91;;;-141.22;100.00
36392;BME280;22639;42.690;23.356;2022-09-19T10:41:26;52988.91;;;-141.22;100.00
36392;BME280;22639;42.690;23.356;2022-09-19T10:43:57;52988.91;;;-141.22;100.00
36392;BME280;22639;42.690;23.356;2022-09-19T10:46:34;52988.91;;;-141.22;100.00
36392;BME280;22639;42.690;23.356;2022-09-19T10:49:03;52988.91;;;-141.22;100.00
36392;BME280;22639;42.690;23.356;2022-09-19T10:51:43;52988.91;;;-141.22;100.00
36392;BME280;22639;42.690;23.356;2022-09-19T10:54:12;52988.91;;;-141.22;100.00
36392;BME280;22639;42.690;23.356;2022-09-19T10:56:45;52988.91;;;-141.22;100.00
36392;BME280;22639;42.690;23.356;2022-09-19T11:01:38;52988.91;;;-141.22;100.00
36392;BME280;22639;42.690;23.356;2022-09-19T11:04:20;52988.91;;;-141.22;100.00
36392;BME280;22639;42.690;23.356;2022-09-19T11:06:59;52988.91;;;-141.22;100.00
36392;BME280;22639;42.690;23.356;2022-09-19T11:09:35;52988.91;;;-141.22;100.00
36392;BME280;22639;42.690;23.356;2022-09-19T11:14:38;52988.91;;;-141.22;100.00
36392;BME280;22639;42.690;23.356;2022-09-19T11:20:08;52988.91;;;-141.22;100.00
36392;BME280;22639;42.690;23.356;2022-09-19T11:23:06;52988.91;;;-141.22;100.00
36392;BME280;22639;42.690;23.356;2022-09-19T11:34:03;52988.91;;;-141.22;100.00
36392;BME280;22639;42.690;23.356;2022-09-19T11:45:11;52988.91;;;-141.22;100.00
36392;BME280;22639;42.690;23.356;2022-09-19T11:55:42;52988.91;;;-141.22;100.00
36392;BME280;22639;42.690;23.356;2022-09-19T12:01:00;52988.91;;;-141.22;100.00
36392;BME280;22639;42.690;23.356;2022-09-19T12:03:44;52988.91;;;-141.22;100.00
36392;BME280;22639;42.690;23.356;2022-09-19T12:09:15;52988.91;;;-141.22;100.00
36392;BME280;22639;42.690;23.356;2022-09-19T12:14:35;52988.91;;;-141.22;100.00
36392;BME280;22639;42.690;23.356;2022-09-19T12:17:28;52988.91;;;-141.22;100.00
36392;BME280;22639;42.690;23.356;2022-09-19T12:22:45;52988.91;;;-141.22;100.00
36392;BME280;22639;42.690;23.356;2022-09-19T12:25:17;52988.91;;;-141.22;100.00
36392;BME280;22639;42.690;23.356;2022-09-19T12:27:58;52988.91;;;-141.22;100.00
36392;BME280;22639;42.690;23.356;2022-09-19T12:30:31;52988.91;;;-141.22;100.00
36392;BME280;22639;42.690;23.356;2022-09-19T12:36:44;52988.91;;;-141.22;100.00
36392;BME280;22639;42.690;23.356;2022-09-19T12:38:50;52988.91;;;-141.22;100.00
36392;BME280;22639;42.690;23.356;2022-09-19T12:41:29;52988.91;;;-141.22;100.00
36392;BME280;22639;42.690;23.356;2022-09-19T12:46:57;52988.91;;;-141.22;100.00
36392;BME280;22639;42.690;23.356;2022-09-19T12:52:13;52988.91;;;-141.22;100.00
36392;BME280;22639;42.690;23.356;2022-09-19T12:57:18;52988.91;;;-141.22;100.00
36392;BME280;22639;42.690;23.356;2022-09-19T12:59:48;52988.91;;;-141.22;100.00
36392;BME280;22639;42.690;23.356;2022-09-19T13:05:11;94635.72;;;22.13;28.75
36392;BME280;22639;42.690;23.356;2022-09-19T13:10:25;94624.16;;;22.02;29.53
36392;BME280;22639;42.690;23.356;2022-09-19T13:13:06;94630.44;;;22.13;30.33
36392;BME280;22639;42.690;23.356;2022-09-19T13:18:15;94614.41;;;22.19;30.14
36392;BME280;22639;42.690;23.356;2022-09-19T13:21:00;94607.66;;;22.28;30.66
36392;BME280;22639;42.690;23.356;2022-09-19T13:23:51;94606.91;;;22.44;31.61
36392;BME280;22639;42.690;23.356;2022-09-19T13:26:20;94600.06;;;22.48;31.60
36392;BME280;22639;42.690;23.356;2022-09-19T13:28:53;94598.88;;;22.39;29.76
36392;BME280;22639;42.690;23.356;2022-09-19T13:31:25;94591.19;;;22.54;29.70
36392;BME280;22639;42.690;23.356;2022-09-19T13:33:53;94602.63;;;22.59;29.51
36392;BME280;22639;42.690;23.356;2022-09-19T13:38:55;94585.50;;;22.46;30.58
36392;BME280;22639;42.690;23.356;2022-09-19T13:44:28;94582.28;;;22.44;32.34
36392;BME280;22639;42.690;23.356;2022-09-19T13:46:57;94584.44;;;22.30;30.51
36392;BME280;22639;42.690;23.356;2022-09-19T13:49:37;94582.66;;;22.31;29.26
36392;BME280;22639;42.690;23.356;2022-09-19T13:52:08;94577.25;;;22.26;30.29
36392;BME280;22639;42.690;23.356;2022-09-19T13:54:58;94576.91;;;22.06;31.26
36392;BME280;22639;42.690;23.356;2022-09-19T13:57:28;94574.22;;;22.01;31.42
36392;BME280;22639;42.690;23.356;2022-09-19T14:00:01;94576.59;;;22.02;30.80
36392;BME280;22639;42.690;23.356;2022-09-19T14:02:40;94559.94;;;21.85;30.85
36392;BME280;22639;42.690;23.356;2022-09-19T14:05:16;94573.09;;;21.80;31.74
36392;BME280;22639;42.690;23.356;2022-09-19T14:13:04;94577.00;;;21.78;31.18
36392;BME280;22639;42.690;23.356;2022-09-19T14:15:39;94581.00;;;21.80;32.82
36392;BME280;22639;42.690;23.356;2022-09-19T14:20:50;94575.94;;;21.79;32.06
36392;BME280;22639;42.690;23.356;2022-09-19T14:23:18;94576.84;;;21.84;33.01
36392;BME280;22639;42.690;23.356;2022-09-19T14:25:59;94573.88;;;21.81;32.76
36392;BME280;22639;42.690;23.356;2022-09-19T14:47:20;94580.91;;;21.75;32.25
36392;BME280;22639;42.690;23.356;2022-09-19T14:49:57;94575.81;;;21.69;31.14
36392;BME280;22639;42.690;23.356;2022-09-19T14:52:26;94582.84;;;21.64;31.10
36392;BME280;22639;42.690;23.356;2022-09-19T14:54:59;94582.84;;;21.52;31.18
36392;BME280;22639;42.690;23.356;2022-09-19T14:57:27;94577.25;;;21.49;31.10
36392;BME280;22639;42.690;23.356;2022-09-19T14:59:52;94583.22;;;21.44;31.11
36392;BME280;22639;42.690;23.356;2022-09-19T15:04:51;94579.22;;;21.42;32.13
36392;BME280;22639;42.690;23.356;2022-09-19T15:07:26;94586.81;;;21.38;32.29
36392;BME280;22639;42.690;23.356;2022-09-19T15:09:51;94594.66;;;21.33;31.96
36392;BME280;22639;42.690;23.356;2022-09-19T15:14:51;94597.91;;;21.24;33.04
36392;BME280;22639;42.690;23.356;2022-09-19T15:17:19;94605.25;;;21.22;31.70
36392;BME280;22639;42.690;23.356;2022-09-19T15:19:50;94600.19;;;21.20;32.59
36392;BME280;22639;42.690;23.356;2022-09-19T15:22:38;94597.00;;;21.18;33.79
36392;BME280;22639;42.690;23.356;2022-09-19T15:25:06;94595.44;;;21.06;32.86
36392;BME280;22639;42.690;23.356;2022-09-19T15:27:35;94592.13;;;20.99;32.91
36392;BME280;22639;42.690;23.356;2022-09-19T15:30:26;94592.88;;;20.83;33.16